Tiempo atmosférico en la estación meteorológica de Navalvillar De Pela, Badajoz (308 m.)



Fecha
DESCASC
Temp. máxima en grados centígrados (hora)
DESCASC
Temp. mínima en grados centígrados (hora)
DESCASC
Temp. media en grados centígrados
DESCASC
Racha de viento máxima en m/sg (hora)
DESCASC
Velocidad máxima media en intervalos de 10 minutos(hora)
DESCASC
Precipitaciones diarias en mm
DESCASC
Precipitaciones de 00:00 a 06:00 en mm
DESCASC
Precipitaciones de 06:00 a 12:00 en mm
DESCASC
Precipitaciones de 12:00 a 18:00 en mm
DESCASC
Precipitaciones de 18:00 a 24:00 en mm
DESCASC
24-01-2021 14.1 (14:30) 9.4 (08:20) 11.8 13.89 (02:00) 8.06 (02:00) 5.4 5.4 0 0 0
23-01-2021 13.2 (23:10) 7.4 (06:30) 10.3 15.28 (20:20) 9.17 (20:20) 1.4 0 0 0.6 0.8
22-01-2021 14.3 (02:30) 7.9 (23:40) 11.1 20.28 (06:30) 10.83 (06:00) 1 0.6 0 0.4 0
21-01-2021 13.8 (16:10) 9.8 (00:00) 11.8 16.67 (23:30) 9.44 (23:40) 3.6 0.6 1.2 0.2 1.6
20-01-2021 15.7 (15:30) 8.4 (00:00) 12 12.22 (19:10) 7.5 (19:10) 17.6 0 14.2 0.6 2.8
19-01-2021 12 (12:30) 0.3 (00:00) 6.2 5.28 (22:20) 3.33 (14:30) 0 0 0 0 0
18-01-2021 17.2 (17:10) -0.6 (-00:0) 8.3 3.61 (23:40) 2.78 (23:40) 0 0 0 0 0
17-01-2021 14.7 (17:20) -1.7 (-00:0) 6.5 3.33 (15:20) 2.22 (05:00) 0 0 0 0 0
16-01-2021 12.3 (16:10) -2.8 (-00:0) 4.8 3.33 (14:10) 1.67 (19:00) 0.2 0 0.2 0 0
15-01-2021 12.2 (17:10) -3.3 (-00:0) 4.4 3.06 (12:10) 2.22 (11:40) 0 0 0 0 0
14-01-2021 10 (16:50) -3.1 (07:30) 3.5 3.89 (15:00) 2.5 (08:10) 0 0 0 0 0
13-01-2021 10.1 (17:20) -4.1 (-00:0) 3 3.89 (16:30) 2.22 (15:10) 0 0 0 0 0
12-01-2021 9.5 (16:00) -4.3 (-00:0) 2.6 3.33 (15:50) 2.5 (01:30) 0 0 0 0 0
11-01-2021 9.4 (15:10) -1.8 (-00:0) 3.8 5.83 (14:50) 3.89 (15:20) 0 0 0 0 0
10-01-2021 9.3 (15:30) 0.7 (23:40) 5 7.5 (14:50) 5.56 (17:10) 0.2 0.2 0 0 0
09-01-2021 3.5 (17:10) 2 (00:00) 2.8 6.67 (16:00) 3.89 (16:00) 5.2 1.8 1.4 1.6 0.4
08-01-2021 4.5 (07:00) 1.2 (00:00) 2.9 9.72 (14:40) 6.11 (20:10) 12 0 1 6.6 4.4
07-01-2021 5.9 (16:50) 1.4 (00:00) 3.7 7.5 (17:30) 5.28 (17:30) 0.8 0 0.8 0 0
06-01-2021 8.1 (16:10) -3.7 (-00:0) 2.2 5.83 (14:20) 3.61 (14:20) 0 0 0 0 0
05-01-2021 7.7 (17:10) -2.8 (-00:0) 2.4 3.33 (01:20) 2.22 (14:10) 0.2 0 0.2 0 0
04-01-2021 7.5 (17:30) -0.3 (00:00) 3.6 5.83 (03:00) 3.33 (00:20) 0.2 0 0 0 0.2
03-01-2021 8.8 (16:30) -3.5 (-00:0) 2.7 6.67 (16:40) 4.17 (20:50) 0 0 0 0 0
02-01-2021 9 (15:50) 0.2 (00:00) 4.6 8.61 (00:10) 5.28 (00:10) 0 0 0 0 0
01-01-2021 9.3 (14:10) 2.7 (00:00) 6 10.83 (23:20) 6.67 (11:30) 0 0 0 0 0
31-12-2020 9 (18:50) -2 (-00:0) 3.5 11.11 (21:40) 6.67 (21:40) 1.4 0 0 0 1.4
30-12-2020 9.7 (16:20) 2 (00:00) 5.8 7.5 (04:50) 5 (03:50) 0 0 0 0 0
29-12-2020 10.9 (16:00) 4.8 (00:00) 7.8 10.83 (12:10) 6.67 (16:00) 0 0 0 0 0
28-12-2020 11.7 (15:20) 6.1 (00:00) 8.9 16.39 (03:40) 10 (04:00) 1 0.2 0.8 0 0
27-12-2020 10.4 (17:00) -2.8 (-00:0) 3.8 11.94 (23:59) 7.5 (23:59) 0 0 0 0 0
26-12-2020 11.6 (16:30) 0.6 (00:00) 6.1 6.94 (07:10) 5 (07:10) 0 0 0 0 0

Gráficas

Temp. máximas Temp. mínimas Temp. medias Precipitaciones Rachas de viento máximas Velocidades máximas media en intervalos de 10 minutos

Datos horarios

Fecha y hora oficial Temperatura (ºC) Velocidad del viento (km/h) Dirección del viento Racha (km/h) Dirección de racha Precipitación (mm) Presión (hPa) Tendencia (hPa) Humedad (%)
2021-01-24 23:00:00 12.1 18 Oeste 31 Oeste 0 -- -- 83
2021-01-24 22:00:00 11.7 15 Oeste 29 Oeste 0 -- -- 82
2021-01-24 21:00:00 11.7 17 Oeste 31 Oeste 0 -- -- 84
2021-01-24 20:00:00 11.7 11 Oeste 25 Oeste 0 -- -- 83
2021-01-24 19:00:00 12.1 12 Oeste 21 Oeste 0 -- -- 81
2021-01-24 18:00:00 12.8 12 Oeste 28 Oeste 0 -- -- 79
2021-01-24 17:00:00 13.2 21 Noroeste 35 Oeste 0 -- -- 75
2021-01-24 16:00:00 13.2 18 Oeste 33 Noroeste 0 -- -- 80
2021-01-24 15:00:00 13.7 18 Noroeste 30 Oeste 0 -- -- 74
2021-01-24 14:00:00 13.6 18 Noroeste 30 Oeste 0 -- -- 74
2021-01-24 13:00:00 12.4 17 Noroeste 30 Oeste 0 -- -- 78
2021-01-24 12:00:00 11.9 17 Noroeste 29 Noroeste 0 -- -- 83
2021-01-24 11:00:00 11 20 Oeste 30 Noroeste 0 -- -- 90
2021-01-24 10:00:00 9.7 17 Oeste 31 Noroeste 0 -- -- 95
2021-01-24 09:00:00 9.6 15 Oeste 28 Oeste 0 -- -- 96
2021-01-24 08:00:00 9.6 22 Oeste 35 Oeste 0 -- -- 95
2021-01-24 07:00:00 9.6 12 Noroeste 42 Noroeste 0 -- -- 92
2021-01-24 06:00:00 10.1 27 Noroeste 47 Noroeste 0 -- -- 94
2021-01-24 05:00:00 11 26 Noroeste 43 Oeste 0 -- -- 94
2021-01-24 04:00:00 11.9 19 Oeste 39 Noroeste 0 -- -- 96
2021-01-24 03:00:00 12.7 23 Noroeste 42 Oeste 5.2 -- -- 96
2021-01-24 02:00:00 13.1 29 Oeste 50 Oeste 0.2 -- -- 95
2021-01-24 01:00:00 13 27 Oeste 50 Noroeste 0 -- -- 95
2021-01-24 00:00:00 13 27 Oeste 53 Oeste 0 -- -- 94
2021-01-23 23:00:00 13.1 31 Oeste 51 Noroeste 0 -- -- 93
2021-01-23 22:00:00 13 26 Oeste 51 Oeste 0.6 -- -- 94
2021-01-23 21:00:00 13.1 30 Oeste 55 Oeste 0 -- -- 93
2021-01-23 20:00:00 12.7 31 Oeste 51 Noroeste 0 -- -- 94
2021-01-23 19:00:00 13 31 Oeste 53 Oeste 0.2 -- -- 88
2021-01-23 18:00:00 12.3 25 Oeste 47 Oeste 0 -- -- 88
2021-01-23 17:00:00 11.5 23 Oeste 43 Oeste 0 -- -- 90
2021-01-23 16:00:00 11.2 23 Oeste 37 Oeste 0 -- -- 90
2021-01-23 15:00:00 11.5 17 Oeste 31 Oeste 0 -- -- 86
2021-01-23 14:00:00 11.2 15 Oeste 34 Oeste 0.6 -- -- 87
2021-01-23 13:00:00 11.6 21 Oeste 36 Noroeste 0 -- -- 79
2021-01-23 12:00:00 10.7 13 Oeste 28 Oeste 0 -- -- 85
2021-01-23 11:00:00 9.3 16 Noroeste 30 Oeste 0 -- -- 93
2021-01-23 10:00:00 8.5 15 Noroeste 32 Noroeste 0 -- -- 95
2021-01-23 09:00:00 8 15 Oeste 27 Oeste 0 -- -- 95
2021-01-23 08:00:00 7.8 9 Noroeste 25 Oeste 0 -- -- 94
2021-01-23 07:00:00 7.6 16 Oeste 29 Oeste 0 -- -- 95
2021-01-23 06:00:00 7.6 12 Noroeste 24 Noroeste 0 -- -- 95
2021-01-23 05:00:00 7.8 15 Noroeste 28 Noroeste 0 -- -- 94
2021-01-23 04:00:00 7.7 14 Noroeste 29 Oeste 0 -- -- 94
2021-01-23 03:00:00 8.1 17 Oeste 30 Oeste 0 -- -- 92
2021-01-23 02:00:00 8.1 15 Oeste 28 Oeste 0 -- -- 91
2021-01-23 01:00:00 7.8 12 Oeste 28 Oeste 0 -- -- 90
2021-01-23 00:00:00 8.1 15 Oeste 24 Noroeste 0 -- -- 88
2021-01-22 23:00:00 8.7 12 Oeste 28 Oeste 0 -- -- 84
2021-01-22 22:00:00 9 18 Oeste 31 Oeste 0 -- -- 80
2021-01-22 21:00:00 8.8 16 Oeste 27 Oeste 0 -- -- 81
2021-01-22 20:00:00 8.9 13 Oeste 25 Noroeste 0 -- -- 82
2021-01-22 19:00:00 9.9 13 Oeste 31 Oeste 0 -- -- 80
2021-01-22 18:00:00 10.7 22 Noroeste 44 Noroeste 0 -- -- 77
2021-01-22 17:00:00 11.6 23 Noroeste 48 Noroeste 0 -- -- 70
2021-01-22 16:00:00 12.2 31 Noroeste 53 Noroeste 0.2 -- -- 65
2021-01-22 15:00:00 11.2 32 Noroeste 62 Noroeste 0.2 -- -- 75
2021-01-22 14:00:00 12.3 38 Noroeste 60 Noroeste 0 -- -- 72
2021-01-22 13:00:00 11.8 26 Noroeste 52 Noroeste 0 -- -- 79
2021-01-22 12:00:00 10.9 27 Noroeste 52 Oeste 0 -- -- 83
2021-01-22 11:00:00 11.7 28 Noroeste 49 Noroeste 0 -- -- 74
2021-01-22 10:00:00 11.3 27 Noroeste 41 Oeste 0 -- -- 78
2021-01-22 09:00:00 10.4 24 Noroeste 53 Noroeste 0 -- -- 81
2021-01-22 08:00:00 11.1 33 Noroeste 59 Noroeste 0 -- -- 78
2021-01-22 07:00:00 11.8 32 Noroeste 73 Noroeste 0 -- -- 79
2021-01-22 06:00:00 12.5 39 Noroeste 59 Oeste 0 -- -- 84
2021-01-22 05:00:00 13.1 24 Noroeste 50 Noroeste 0 -- -- 88
2021-01-22 04:00:00 13.5 27 Oeste 57 Noroeste 0.2 -- -- 88
2021-01-22 03:00:00 14.2 24 Oeste 44 Oeste 0 -- -- 88
2021-01-22 02:00:00 13.7 21 Oeste 44 Oeste 0 -- -- 88
2021-01-22 01:00:00 13.7 22 Oeste 46 Oeste 0.4 -- -- 88
2021-01-22 00:00:00 12.9 28 Oeste 60 Oeste 0.2 -- -- 90
2021-01-21 23:00:00 12.5 32 Oeste 58 Sudoeste 0.8 -- -- 90
2021-01-21 22:00:00 12.9 23 Oeste 49 Sudoeste 0.2 -- -- 84
2021-01-21 21:00:00 12.7 18 Oeste 33 Oeste 0.4 -- -- 87
2021-01-21 20:00:00 12.9 15 Oeste 48 Oeste 0 -- -- 85
2021-01-21 19:00:00 13.1 21 Oeste 40 Oeste 0 -- -- 84
2021-01-21 18:00:00 13.8 22 Oeste 38 Oeste 0.2 -- -- 81
2021-01-21 17:00:00 13.3 18 Oeste 39 Oeste 0 -- -- 86
2021-01-21 16:00:00 13.7 20 Oeste 33 Oeste 0 -- -- 83
2021-01-21 15:00:00 13.6 19 Oeste 39 Oeste 0 -- -- 84
2021-01-21 14:00:00 13.5 21 Oeste 42 Oeste 0 -- -- 83
2021-01-21 13:00:00 12.9 14 Oeste 35 Noroeste 0 -- -- 83
2021-01-21 12:00:00 12.4 15 Oeste 31 Oeste 0 -- -- 86
2021-01-21 11:00:00 11.6 16 Oeste 34 Oeste 0.6 -- -- 91
2021-01-21 10:00:00 10.8 13 Noroeste 23 Oeste 0.2 -- -- 94
2021-01-21 09:00:00 10.3 10 Noroeste 24 Oeste 0 -- -- 93
2021-01-21 08:00:00 10.3 13 Noroeste 30 Noroeste 0 -- -- 94
2021-01-21 07:00:00 10.5 19 Noroeste 35 Oeste 0.4 -- -- 94
2021-01-21 06:00:00 10.8 15 Oeste 34 Oeste 0 -- -- 94
2021-01-21 05:00:00 11.2 22 Oeste 40 Oeste 0 -- -- 90
2021-01-21 04:00:00 11.1 16 Oeste 30 Oeste 0 -- -- 91
2021-01-21 03:00:00 10.9 17 Oeste 35 Oeste 0.2 -- -- 93
2021-01-21 02:00:00 11.1 17 Oeste 37 Oeste 0 -- -- 91
2021-01-21 01:00:00 11.2 23 Oeste 42 Oeste 0.4 -- -- 92
2021-01-21 00:00:00 10.9 17 Oeste 35 Oeste 0 -- -- 89
2021-01-20 23:00:00 10.9 16 Oeste 37 Oeste 0 -- -- 91
2021-01-20 22:00:00 10.9 18 Oeste 35 Oeste 0.2 -- -- 93
2021-01-20 21:00:00 10.9 15 Oeste 31 Oeste 0.6 -- -- 93
2021-01-20 20:00:00 11.1 18 Noroeste 44 Oeste 1 -- -- 93
2021-01-20 19:00:00 11.4 23 Oeste 37 Oeste 1 -- -- 91
2021-01-20 18:00:00 12 18 Oeste 36 Oeste 0.4 -- -- 87
2021-01-20 17:00:00 14 13 Oeste 39 Oeste 0 -- -- 72
2021-01-20 16:00:00 15 17 Oeste 38 Oeste 0 -- -- 70
2021-01-20 15:00:00 14.3 18 Sudoeste 32 Sudoeste 0 -- -- 74
2021-01-20 14:00:00 14.6 17 Sudoeste 29 Sudoeste 0.2 -- -- 73
2021-01-20 13:00:00 13.7 17 Sudoeste 29 Sudoeste 0 -- -- 76
2021-01-20 12:00:00 13.2 15 Sudoeste 30 Sudoeste 0 -- -- 78
2021-01-20 11:00:00 10.4 19 Sudoeste 41 Sudoeste 0 -- -- 91
2021-01-20 10:00:00 9.5 19 Sur 32 Sur 2.4 -- -- 93
2021-01-20 09:00:00 9.3 7 Oeste 22 Sudoeste 6.8 -- -- 95
2021-01-20 08:00:00 8.8 8 Sur 21 Sur 3.8 -- -- 93
2021-01-20 07:00:00 8.7 14 Sur 28 Sudeste 1.2 -- -- 91
2021-01-20 06:00:00 9.2 16 Sur 25 Sur 0 -- -- 85
2021-01-20 05:00:00 9 15 Sur 23 Sur 0 -- -- 84
2021-01-20 04:00:00 8.7 15 Sur 20 Sur 0 -- -- 84
2021-01-20 03:00:00 8.6 12 Sur 18 Sur 0 -- -- 81
2021-01-20 02:00:00 8.8 12 Sur 16 Sur 0 -- -- 80
2021-01-20 01:00:00 8.6 10 Sur 14 Sur 0 -- -- 81
2021-01-20 00:00:00 8.4 8 Sudoeste 12 Sur 0 -- -- 84
2021-01-19 23:00:00 9.1 7 Sur 19 Sudoeste 0 -- -- 80
2021-01-19 22:00:00 8.3 4 Sudoeste 8 Sur 0 -- -- 84
2021-01-19 21:00:00 8 6 Sur 8 Sudoeste 0 -- -- 86
2021-01-19 20:00:00 7.2 6 Sur 8 Sur 0 -- -- 88
2021-01-19 19:00:00 7.8 3 Sur 4 Sur 0 -- -- 85
2021-01-19 18:00:00 10.7 2 Nordeste 5 Nordeste 0 -- -- 72
2021-01-19 17:00:00 11.1 4 Este 8 Nordeste 0 -- -- 73
2021-01-19 16:00:00 11.7 3 Nordeste 9 Noroeste 0 -- -- 68
2021-01-19 15:00:00 11.2 5 Oeste 19 Noroeste 0 -- -- 71
2021-01-19 14:00:00 11 10 Noroeste 17 Noroeste 0 -- -- 73
2021-01-19 13:00:00 11.6 9 Noroeste 15 Norte 0 -- -- 67
2021-01-19 12:00:00 10.4 8 Sudeste 15 Sudeste 0 -- -- 69
2021-01-19 11:00:00 7 10 Sudeste 15 Este 0 -- -- 81
2021-01-19 10:00:00 4.4 8 Sudeste 14 Sudeste 0 -- -- 89
2021-01-19 09:00:00 1.5 8 Sudeste 13 Sudeste 0 -- -- 95
2021-01-19 08:00:00 0.5 7 Este 13 Sudeste 0 -- -- 94
2021-01-19 07:00:00 1 3 Sudeste 13 Sudeste 0 -- -- 91
2021-01-19 06:00:00 1.8 5 Este 12 Sudeste 0 -- -- 94
2021-01-19 05:00:00 2.2 6 Sudeste 12 Sudeste 0 -- -- 94
2021-01-19 04:00:00 3.8 7 Sudeste 14 Sudeste 0 -- -- 82
2021-01-19 03:00:00 4.1 9 Sur 12 Sudeste 0 -- -- 85
2021-01-19 02:00:00 4.2 4 Sur 12 Sur 0 -- -- 85
2021-01-19 01:00:00 4.4 10 Sur 14 Sudeste 0 -- -- 84
2021-01-19 00:00:00 5.6 9 Sur 13 Sudeste 0 -- -- 81
2021-01-18 23:00:00 4.6 9 Sur 11 Sur 0 -- -- 85
2021-01-18 22:00:00 4.3 3 Sur 6 Sur 0 -- -- 85
2021-01-18 21:00:00 6.1 5 Sur 8 Sudoeste 0 -- -- 79
2021-01-18 20:00:00 7.1 0 Calma 6 Sudoeste 0 -- -- 77
2021-01-18 19:00:00 8.7 6 Sudoeste 6 Oeste 0 -- -- 70
2021-01-18 18:00:00 16.5 2 Sudoeste 7 Nordeste 0 -- -- 48
2021-01-18 17:00:00 17.1 0 Calma 5 Este 0 -- -- 44
2021-01-18 16:00:00 16.4 3 Nordeste 9 Este 0 -- -- 45
2021-01-18 15:00:00 15.4 4 Este 11 Este 0 -- -- 47
2021-01-18 14:00:00 13.6 5 Sudeste 8 Sudeste 0 -- -- 50
2021-01-18 13:00:00 11.1 4 Este 9 Sudeste 0 -- -- 62
2021-01-18 12:00:00 8.9 4 Este 9 Este 0 -- -- 65
2021-01-18 11:00:00 6.5 5 Sudeste 8 Este 0 -- -- 69
2021-01-18 10:00:00 3.4 5 Este 9 Sur 0 -- -- 81
2021-01-18 09:00:00 0.5 2 Sudeste 5 Este 0 -- -- 88
2021-01-18 08:00:00 0.8 5 Sudeste 9 Sudeste 0 -- -- 85
2021-01-18 07:00:00 1.8 9 Sur 13 Sur 0 -- -- 83
2021-01-18 06:00:00 1.4 5 Sur 10 Sur 0 -- -- 85
2021-01-18 05:00:00 -0.4 5 Sudeste 8 Sudeste 0 -- -- 92
2021-01-18 04:00:00 0.1 4 Este 12 Sur 0 -- -- 87
2021-01-18 03:00:00 1.6 8 Sur 9 Sur 0 -- -- 89
2021-01-18 02:00:00 0.5 0 Calma 8 Este 0 -- -- 93
2021-01-18 01:00:00 2.3 4 Sudeste 8 Sudeste 0 -- -- 91
2021-01-18 00:00:00 1.5 3 Sur 4 Sudeste 0 -- -- 92
2021-01-17 23:00:00 2.9 3 Este 7 Sudoeste 0 -- -- 90
2021-01-17 22:00:00 3.4 3 Sudoeste 6 Sudeste 0 -- -- 86
2021-01-17 21:00:00 4.6 3 Sudeste 5 Nordeste 0 -- -- 88
2021-01-17 20:00:00 5.9 4 Sudoeste 10 Sur 0 -- -- 84
2021-01-17 19:00:00 7 6 Sur 8 Sur 0 -- -- 77
2021-01-17 18:00:00 13.4 3 Norte 9 Oeste 0 -- -- 60
2021-01-17 17:00:00 14.5 4 Noroeste 9 Noroeste 0 -- -- 57
2021-01-17 16:00:00 14.2 5 Norte 12 Noroeste 0 -- -- 58
2021-01-17 15:00:00 13.7 4 Noroeste 7 Noroeste 0 -- -- 63
2021-01-17 14:00:00 12.3 4 Norte 8 Noroeste 0 -- -- 61
2021-01-17 13:00:00 10.9 4 Nordeste 6 Este 0 -- -- 63
2021-01-17 12:00:00 8.4 4 Este 8 Este 0 -- -- 78
2021-01-17 11:00:00 5.4 3 Sudeste 5 Sudeste 0 -- -- 84
2021-01-17 10:00:00 1.4 0 Calma 8 Sudeste 0 -- -- 96
2021-01-17 09:00:00 -1.2 6 Sur 9 Sur 0 -- -- 97
2021-01-17 08:00:00 -1.5 5 Sudeste 10 Sur 0 -- -- 96
2021-01-17 07:00:00 -0.7 4 Sur 8 Sur 0 -- -- 97
2021-01-17 06:00:00 -1.6 5 Este 8 Este 0 -- -- 97
2021-01-17 05:00:00 -0.2 8 Sur 11 Sur 0 -- -- 98
2021-01-17 04:00:00 -0.2 2 Sur 6 Sudeste 0 -- -- 97
2021-01-17 03:00:00 -0.9 5 Sur 6 Sudeste 0 -- -- 97
2021-01-17 02:00:00 0.4 3 Este 4 Este 0 -- -- 96
2021-01-17 01:00:00 0.2 3 Sur 4 Sur 0 -- -- 94
2021-01-17 00:00:00 1.4 0 Calma 2 Oeste 0 -- -- 95
2021-01-16 23:00:00 1.8 0 Calma 7 Sur 0 -- -- 93
2021-01-16 22:00:00 2.7 5 Sur 5 Sur 0 -- -- 94
2021-01-16 21:00:00 3.2 2 Sudeste 6 Sudoeste 0 -- -- 90
2021-01-16 20:00:00 4.6 4 Sudoeste 8 Sudoeste 0 -- -- 89
2021-01-16 19:00:00 6.7 6 Sudoeste 8 Sudoeste 0 -- -- 83
2021-01-16 18:00:00 11.6 3 Norte 9 Noroeste 0 -- -- 68
2021-01-16 17:00:00 12.2 5 Norte 10 Norte 0 -- -- 68
2021-01-16 16:00:00 12.2 3 Noroeste 8 Nordeste 0 -- -- 68
2021-01-16 15:00:00 11.2 3 Norte 12 Noroeste 0 -- -- 72
2021-01-16 14:00:00 10.2 4 Noroeste 8 Noroeste 0 -- -- 72
2021-01-16 13:00:00 8.2 2 Este 6 Este 0 -- -- 79
2021-01-16 12:00:00 5.9 2 Nordeste 9 Este 0 -- -- 85
2021-01-16 11:00:00 3.5 4 Sudeste 6 Este 0 -- -- 98
2021-01-16 10:00:00 -0.1 0 Calma 2 Sudeste 0.2 -- -- 98
2021-01-16 09:00:00 -2.8 0 Calma 7 Este 0 -- -- 97
2021-01-16 08:00:00 -2.5 5 Este 8 Este 0 -- -- 97
2021-01-16 07:00:00 -1.9 0 Calma 2 Sudeste 0 -- -- 97
2021-01-16 06:00:00 -1.6 0 Calma 5 Sur 0 -- -- 97
2021-01-16 05:00:00 -1.7 4 Sudeste 6 Sudeste 0 -- -- 96
2021-01-16 04:00:00 -1.2 0 Calma 3 Sudoeste 0 -- -- 97
2021-01-16 03:00:00 -1 0 Calma 3 Oeste 0 -- -- 95
2021-01-16 02:00:00 -0.6 -- -- -- -- 0 -- -- 94
2021-01-16 01:00:00 0.1 0 Calma 0 Calma 0 -- -- 93
2021-01-16 00:00:00 1.1 0 Calma 3 Sudeste 0 -- -- 93
2021-01-15 23:00:00 2.3 2 Este 6 Este 0 -- -- 91
2021-01-15 22:00:00 2.4 3 Sudoeste 6 Sudoeste 0 -- -- 88
2021-01-15 21:00:00 4 4 Oeste 6 Oeste 0 -- -- 86
2021-01-15 20:00:00 5.1 4 Oeste 8 Oeste 0 -- -- 84
2021-01-15 19:00:00 6.7 2 Oeste 11 Noroeste 0 -- -- 79
2021-01-15 18:00:00 10.6 5 Noroeste 9 Norte 0 -- -- 67
2021-01-15 17:00:00 11.9 0 Calma 4 Norte 0 -- -- 63
2021-01-15 16:00:00 11.6 3 Norte 6 Noroeste 0 -- -- 63
2021-01-15 15:00:00 10.6 4 Noroeste 9 Noroeste 0 -- -- 67
2021-01-15 14:00:00 9 4 Norte 10 Norte 0 -- -- 73
2021-01-15 13:00:00 7.1 4 Sur 11 Sudeste 0 -- -- 79
2021-01-15 12:00:00 4.5 7 Este 11 Este 0 -- -- 90
2021-01-15 11:00:00 2.8 4 Sur 8 Sudeste 0 -- -- 97
2021-01-15 10:00:00 -0.4 3 Este 5 Este 0 -- -- 98
2021-01-15 09:00:00 -2.8 0 Calma 4 Sur 0 -- -- 98
2021-01-15 08:00:00 -2.5 3 Noroeste 6 Noroeste 0 -- -- 97
2021-01-15 07:00:00 -2.4 3 Este 5 Sudeste 0 -- -- 97
2021-01-15 06:00:00 -2 0 Calma 5 Sudeste 0 -- -- 97
2021-01-15 05:00:00 -1.4 3 Sudeste 5 Sudeste 0 -- -- 98
2021-01-15 04:00:00 -1.7 4 Sudeste 8 Este 0 -- -- 97
2021-01-15 03:00:00 -1.8 6 Este 8 Sur 0 -- -- 96
2021-01-15 02:00:00 -1.3 3 Sur 5 Sudeste 0 -- -- 96
2021-01-15 01:00:00 -0.5 0 Calma 4 Sur 0 -- -- 95
2021-01-15 00:00:00 0.4 2 Este 5 Sudoeste 0 -- -- 95
2021-01-14 23:00:00 0.9 4 Sur 7 Sur 0 -- -- 94
2021-01-14 22:00:00 1.7 3 Sur 8 Sur 0 -- -- 92
2021-01-14 21:00:00 1.7 3 Sudeste 7 Oeste 0 -- -- 88
2021-01-14 20:00:00 4.4 5 Oeste 9 Oeste 0 -- -- 83
2021-01-14 19:00:00 5.3 7 Oeste 9 Oeste 0 -- -- 80
2021-01-14 18:00:00 8.4 6 Noroeste 10 Norte 0 -- -- 70
2021-01-14 17:00:00 10 4 Noroeste 8 Noroeste 0 -- -- 63
2021-01-14 16:00:00 9.3 6 Noroeste 14 Oeste 0 -- -- 65
2021-01-14 15:00:00 8.6 8 Noroeste 14 Noroeste 0 -- -- 70
2021-01-14 14:00:00 7.8 4 Norte 11 Noroeste 0 -- -- 73
2021-01-14 13:00:00 5.9 5 Oeste 10 Noroeste 0 -- -- 77
2021-01-14 12:00:00 4.1 3 Noroeste 4 Oeste 0 -- -- 85
2021-01-14 11:00:00 1.3 0 Calma 3 Norte 0 -- -- 93
2021-01-14 10:00:00 -0.6 2 Sur 5 Sudeste 0 -- -- 97
2021-01-14 09:00:00 -2.8 0 Calma 11 Sur 0 -- -- 96
2021-01-14 08:00:00 -2 8 Sur 12 Sur 0 -- -- 98
2021-01-14 07:00:00 -2.9 0 Calma 2 Oeste 0 -- -- 96
2021-01-14 06:00:00 -2.5 0 Calma -- -- 0 -- -- 96
2021-01-14 05:00:00 -1.8 2 Sudeste 5 Sudeste 0 -- -- 97
2021-01-14 04:00:00 -2 4 Este 9 Sur 0 -- -- 95
2021-01-14 03:00:00 -1.7 3 Sur 9 Sur 0 -- -- 95
2021-01-14 02:00:00 -1.5 0 Calma 6 Este 0 -- -- 95
2021-01-14 01:00:00 -1.2 4 Este 5 Este 0 -- -- 94
2021-01-14 00:00:00 -0.8 0 Calma 3 Nordeste 0 -- -- 92
2021-01-13 23:00:00 -0.2 0 Calma 4 Sudeste 0 -- -- 90
2021-01-13 22:00:00 1.2 5 Sur 8 Sudoeste 0 -- -- 84
2021-01-13 21:00:00 2 0 Calma 5 Sudoeste 0 -- -- 82
2021-01-13 20:00:00 2.5 4 Sudoeste 6 Sudoeste 0 -- -- 81
2021-01-13 19:00:00 4.5 2 Sudoeste 4 Noroeste 0 -- -- 74
2021-01-13 18:00:00 9.3 4 Noroeste 7 Noroeste 0 -- -- 58
2021-01-13 17:00:00 9.9 5 Oeste 14 Noroeste 0 -- -- 53
2021-01-13 16:00:00 9.4 8 Noroeste 13 Noroeste 0 -- -- 55
2021-01-13 15:00:00 8.6 7 Norte 13 Noroeste 0 -- -- 60
2021-01-13 14:00:00 7.7 5 Norte 10 Norte 0 -- -- 64
2021-01-13 13:00:00 6 3 Nordeste 6 Norte 0 -- -- 70
2021-01-13 12:00:00 4.2 0 Calma 5 Este 0 -- -- 78
2021-01-13 11:00:00 2.4 2 Nordeste 3 Este 0 -- -- 86
2021-01-13 10:00:00 -0.5 0 Calma 3 Sur 0 -- -- 95
2021-01-13 09:00:00 -3.6 2 Sur 5 Sudeste 0 -- -- 95
2021-01-13 08:00:00 -4.1 0 Calma 4 Sur 0 -- -- 94
2021-01-13 07:00:00 -3.8 0 Calma 2 Sudeste 0 -- -- 94
2021-01-13 06:00:00 -3.7 2 Sudoeste 4 Sur 0 -- -- 93
2021-01-13 05:00:00 -3 3 Sur 5 Sur 0 -- -- 92
2021-01-13 04:00:00 -2.8 3 Sur 6 Sudeste 0 -- -- 93
2021-01-13 03:00:00 -2.6 4 Sudeste 6 Sudeste 0 -- -- 94
2021-01-13 02:00:00 -2.7 2 Oeste 3 Oeste 0 -- -- 92
2021-01-13 01:00:00 -1.8 0 Calma 2 Sur 0 -- -- 90
2021-01-13 00:00:00 -1.2 0 Calma 3 Sur 0 -- -- 89
2021-01-12 23:00:00 -1 0 Calma 6 Sudoeste 0 -- -- 87
2021-01-12 22:00:00 0.1 0 Calma 3 Sudeste 0 -- -- 86
2021-01-12 21:00:00 0.6 2 Sur 3 Sur 0 -- -- 84
2021-01-12 20:00:00 2.1 4 Oeste 6 Oeste 0 -- -- 78
2021-01-12 19:00:00 3.9 2 Sudoeste 5 Oeste 0 -- -- 74
2021-01-12 18:00:00 8.2 5 Noroeste 10 Noroeste 0 -- -- 56
2021-01-12 17:00:00 9.4 4 Noroeste 10 Noroeste 0 -- -- 52
2021-01-12 16:00:00 9.5 5 Noroeste 12 Noroeste 0 -- -- 46
2021-01-12 15:00:00 8.7 3 Oeste 8 Sudeste 0 -- -- 49
2021-01-12 14:00:00 7.5 2 Este 9 Este 0 -- -- 53
2021-01-12 13:00:00 5.9 4 Este 9 Este 0 -- -- 63
2021-01-12 12:00:00 4 4 Este 6 Este 0 -- -- 72
2021-01-12 11:00:00 1.1 2 Este 6 Nordeste 0 -- -- 79
2021-01-12 10:00:00 -1.2 2 Sudeste 10 Sur 0 -- -- 89
2021-01-12 09:00:00 -4.1 4 Sur 9 Sur 0 -- -- 91
2021-01-12 08:00:00 -4 2 Sudeste 5 Sur 0 -- -- 88
2021-01-12 07:00:00 -4.2 4 Sur 5 Sur 0 -- -- 90
2021-01-12 06:00:00 -4.1 3 Este 8 Sudeste 0 -- -- 91
2021-01-12 05:00:00 -3.3 3 Sudeste 9 Sur 0 -- -- 87
2021-01-12 04:00:00 -3.6 4 Sur 6 Sur 0 -- -- 90
2021-01-12 03:00:00 -3.1 3 Sudeste 9 Este 0 -- -- 88
2021-01-12 02:00:00 -1.1 5 Sudeste 11 Sur 0 -- -- 79
2021-01-12 01:00:00 -1.2 5 Sur 9 Sur 0 -- -- 76
2021-01-12 00:00:00 0.1 3 Este 5 Este 0 -- -- 69
2021-01-11 23:00:00 -0.6 3 Este 6 Sur 0 -- -- 79
2021-01-11 22:00:00 -0.1 7 Sur 10 Sur 0 -- -- 73
2021-01-11 21:00:00 0.9 6 Sur 12 Sur 0 -- -- 70
2021-01-11 20:00:00 2.4 6 Sur 14 Sudeste 0 -- -- 60
2021-01-11 19:00:00 3.3 6 Sur 9 Sur 0 -- -- 61
2021-01-11 18:00:00 7.4 6 Sudeste 14 Sudeste 0 -- -- 49
2021-01-11 17:00:00 9 9 Sudeste 20 Este 0 -- -- 42
2021-01-11 16:00:00 9.4 10 Sudeste 21 Este 0 -- -- 41
2021-01-11 15:00:00 9.2 13 Este 21 Este 0 -- -- 41
2021-01-11 14:00:00 8.5 13 Sudeste 20 Este 0 -- -- 45
2021-01-11 13:00:00 7.3 7 Sudeste 12 Este 0 -- -- 57
2021-01-11 12:00:00 5.6 4 Nordeste 6 Nordeste 0 -- -- 71
2021-01-11 11:00:00 4 2 Sudeste 4 Sudeste 0 -- -- 75
2021-01-11 10:00:00 0.6 0 Calma 5 Noroeste 0 -- -- 93
2021-01-11 09:00:00 -1.3 2 Este 3 Nordeste 0 -- -- 94
2021-01-11 08:00:00 -1.3 2 Noroeste 4 Noroeste 0 -- -- 91
2021-01-11 07:00:00 -1.1 3 Sur 5 Sur 0 -- -- 90
2021-01-11 06:00:00 -0.8 0 Calma 6 Sur 0 -- -- 91
2021-01-11 05:00:00 0 3 Sur 6 Sur 0 -- -- 85
2021-01-11 04:00:00 0.9 7 Sur 13 Sur 0 -- -- 84
2021-01-11 03:00:00 -0.1 6 Sur 9 Sur 0 -- -- 88
2021-01-11 02:00:00 1.5 3 Sur 11 Sudeste 0 -- -- 80
2021-01-11 01:00:00 0 6 Sudeste 10 Sudeste 0 -- -- 88
2021-01-11 00:00:00 0.8 2 Este 10 Sur 0 -- -- 84
2021-01-10 23:00:00 1.3 7 Sur 14 Sudeste 0 -- -- 81
2021-01-10 22:00:00 1.9 8 Sudeste 13 Sudeste 0 -- -- 81
2021-01-10 21:00:00 2.5 4 Este 18 Este 0 -- -- 80
2021-01-10 20:00:00 3.2 8 Este 14 Este 0 -- -- 78
2021-01-10 19:00:00 4.1 8 Este 22 Este 0 -- -- 74
2021-01-10 18:00:00 6.3 14 Este 26 Este 0 -- -- 66
2021-01-10 17:00:00 8.3 19 Este 27 Este 0 -- -- 63
2021-01-10 16:00:00 7.9 12 Este 23 Este 0 -- -- 66
2021-01-10 15:00:00 8.9 13 Sudeste 27 Sudeste 0 -- -- 62
2021-01-10 14:00:00 8.2 11 Sudeste 19 Sudeste 0 -- -- 63
2021-01-10 13:00:00 6.6 6 Este 13 Sudeste 0 -- -- 72
2021-01-10 12:00:00 5.6 6 Sur 10 Sudeste 0 -- -- 78
2021-01-10 11:00:00 3.7 3 Este 6 Este 0 -- -- 86
2021-01-10 10:00:00 2.6 2 Sudoeste 6 Sudeste 0 -- -- 95
2021-01-10 09:00:00 2.4 4 Sudeste 9 Sur 0 -- -- 95
2021-01-10 08:00:00 2.2 6 Sur 10 Sudeste 0 -- -- 94
2021-01-10 07:00:00 2 6 Sur 9 Sur 0 -- -- 93
2021-01-10 06:00:00 2.4 4 Sur 11 Sudeste 0 -- -- 93
2021-01-10 05:00:00 2.4 10 Sudeste 20 Este 0.2 -- -- 95
2021-01-10 04:00:00 2.2 6 Sudeste 9 Sudeste 0 -- -- 97
2021-01-10 03:00:00 1.7 3 Sur 10 Sudeste 0 -- -- 96
2021-01-10 02:00:00 1.6 4 Sudeste 7 Sudeste 0 -- -- 97
2021-01-10 01:00:00 2 0 Calma 3 Sur 0 -- -- 96
2021-01-10 00:00:00 2.7 2 Oeste 3 Oeste 0 -- -- 96
2021-01-09 23:00:00 2.9 0 Calma 6 Sudeste 0.4 -- -- 96
2021-01-09 22:00:00 3 4 Sudeste 8 Sudeste 0 -- -- 95
2021-01-09 21:00:00 3 2 Sudeste 6 Sur 0 -- -- 94
2021-01-09 20:00:00 3 0 Calma 4 Sudeste 0 -- -- 92
2021-01-09 19:00:00 3.1 3 Oeste 8 Oeste 0 -- -- 91
2021-01-09 18:00:00 3.4 5 Oeste 15 Oeste 0 -- -- 89
2021-01-09 17:00:00 3.4 4 Oeste 18 Oeste 0.2 -- -- 92
2021-01-09 16:00:00 3.1 14 Oeste 24 Oeste 0 -- -- 94
2021-01-09 15:00:00 3 7 Noroeste 20 Noroeste 1.2 -- -- 95
2021-01-09 14:00:00 3.2 6 Sudeste 11 Sudeste 0 -- -- 96
2021-01-09 13:00:00 3.2 6 Sudeste 14 Sudeste 0.2 -- -- 95
2021-01-09 12:00:00 2.9 9 Sur 14 Sudeste 0 -- -- 94
2021-01-09 11:00:00 2.6 6 Sur 10 Sur 0.2 -- -- 96
2021-01-09 10:00:00 2 3 Sur 8 Sur 0.6 -- -- 96
2021-01-09 09:00:00 2.2 2 Sudeste 11 Sudeste 0 -- -- 97
2021-01-09 08:00:00 2.3 7 Sudeste 11 Sudeste 0.2 -- -- 96
2021-01-09 07:00:00 2.4 2 Sur 3 Sur 0.4 -- -- 96
2021-01-09 06:00:00 2.4 2 Sudoeste 3 Oeste 0.6 -- -- 96
2021-01-09 05:00:00 2.5 0 Calma 10 Este 0.2 -- -- 94
2021-01-09 04:00:00 2.6 5 Sudeste 15 Este 0.4 -- -- 93
2021-01-09 03:00:00 2.8 9 Este 17 Sudeste 0.2 -- -- 92
2021-01-09 02:00:00 2.8 12 Este 21 Este 0.2 -- -- 93
2021-01-09 01:00:00 2.8 12 Este 19 Este 0.2 -- -- 92
2021-01-09 00:00:00 2.8 14 Este 27 Este 0.2 -- -- 92
2021-01-08 23:00:00 2.8 17 Este 27 Este 0.4 -- -- 94
2021-01-08 22:00:00 2.9 11 Sudeste 23 Este 1.4 -- -- 95
2021-01-08 21:00:00 2.7 12 Este 30 Este 0.8 -- -- 94
2021-01-08 20:00:00 2.5 21 Este 32 Este 0.6 -- -- 94
2021-01-08 19:00:00 2.5 10 Este 28 Este 1 -- -- 95
2021-01-08 18:00:00 2.4 19 Este 30 Este 1.6 -- -- 94
2021-01-08 17:00:00 3 16 Este 26 Este 2 -- -- 94
2021-01-08 16:00:00 3.6 17 Este 34 Sudeste 1 -- -- 92
2021-01-08 15:00:00 4 19 Este 35 Este 1.8 -- -- 93
2021-01-08 14:00:00 4.3 16 Este 24 Sudeste 0.2 -- -- 91
2021-01-08 13:00:00 4.3 19 Sudeste 30 Este 0 -- -- 90
2021-01-08 12:00:00 4.3 17 Este 26 Este 0.6 -- -- 92
2021-01-08 11:00:00 4.2 10 Este 25 Sudeste 0.2 -- -- 91
2021-01-08 10:00:00 3.8 15 Sudeste 24 Sudeste 0.2 -- -- 89
2021-01-08 09:00:00 4.3 12 Sudeste 21 Sudeste 0 -- -- 83
2021-01-08 08:00:00 4.5 11 Sudeste 20 Sudeste 0 -- -- 80
2021-01-08 07:00:00 4.5 14 Sudeste 28 Sudeste 0 -- -- 80
2021-01-08 06:00:00 4.3 19 Sudeste 28 Sudeste 0 -- -- 80
2021-01-08 05:00:00 3.9 17 Sudeste 28 Este 0 -- -- 82
2021-01-08 04:00:00 2.3 9 Sudeste 13 Sudeste 0 -- -- 87
2021-01-08 03:00:00 2.3 5 Sudeste 12 Sudeste 0 -- -- 88
2021-01-08 02:00:00 1.6 5 Sudeste 9 Sudeste 0 -- -- 90
2021-01-08 01:00:00 1.4 4 Sudeste 10 Sudeste 0 -- -- 90
2021-01-08 00:00:00 1.4 3 Sudeste 6 Sudeste 0 -- -- 90
2021-01-07 23:00:00 1.8 3 Este 13 Este 0 -- -- 88
2021-01-07 22:00:00 2.7 10 Sudeste 17 Sudeste 0 -- -- 86
2021-01-07 21:00:00 3.3 10 Sudeste 19 Sudeste 0 -- -- 83
2021-01-07 20:00:00 4.1 10 Este 22 Sudeste 0 -- -- 82
2021-01-07 19:00:00 5 11 Sudeste 19 Este 0 -- -- 80
2021-01-07 18:00:00 5.3 15 Este 27 Este 0 -- -- 79
2021-01-07 17:00:00 5.9 17 Sudeste 27 Este 0 -- -- 79
2021-01-07 16:00:00 5.6 13 Sudeste 22 Sudeste 0 -- -- 81
2021-01-07 15:00:00 5.4 14 Este 23 Este 0 -- -- 82
2021-01-07 14:00:00 5.1 15 Este 27 Este 0 -- -- 85
2021-01-07 13:00:00 5 16 Sudeste 24 Sudeste 0 -- -- 87
2021-01-07 12:00:00 4.2 13 Este 20 Este 0 -- -- 90
2021-01-07 11:00:00 3.7 10 Este 19 Sudeste 0.2 -- -- 91
2021-01-07 10:00:00 3.4 11 Sudeste 20 Este 0.2 -- -- 90
2021-01-07 09:00:00 3.4 6 Sudeste 12 Sudeste 0.2 -- -- 91
2021-01-07 08:00:00 3.8 6 Sudeste 13 Sudeste 0.2 -- -- 86
2021-01-07 07:00:00 4.3 7 Sudeste 14 Sudeste 0 -- -- 80
2021-01-07 06:00:00 4.2 4 Sur 13 Sudeste 0 -- -- 76
2021-01-07 05:00:00 4.1 6 Sudeste 13 Sudeste 0 -- -- 74
2021-01-07 04:00:00 3.4 3 Sur 6 Sudoeste 0 -- -- 78
2021-01-07 03:00:00 3.6 2 Sudeste 8 Sudeste 0 -- -- 75
2021-01-07 02:00:00 3.9 4 Sudeste 10 Sudeste 0 -- -- 74
2021-01-07 01:00:00 4.1 7 Sudeste 13 Sur 0 -- -- 73
2021-01-07 00:00:00 3.8 4 Sudeste 9 Sudeste 0 -- -- 77
2021-01-06 23:00:00 3.5 8 Sur 14 Sudeste 0 -- -- 79
2021-01-06 22:00:00 3.9 5 Sudeste 11 Sudeste 0 -- -- 75
2021-01-06 21:00:00 4 6 Sudeste 9 Sudeste 0 -- -- 77
2021-01-06 20:00:00 4 4 Sudeste 11 Sur 0 -- -- 77
2021-01-06 19:00:00 4.2 8 Sur 10 Sur 0 -- -- 76
2021-01-06 18:00:00 6.5 5 Sudeste 13 Este 0 -- -- 65
2021-01-06 17:00:00 7.7 10 Este 17 Este 0 -- -- 60
2021-01-06 16:00:00 8 11 Sudeste 17 Sudeste 0 -- -- 56
2021-01-06 15:00:00 7.5 10 Sudeste 21 Sudeste 0 -- -- 58
2021-01-06 14:00:00 7.2 9 Este 20 Sudeste 0 -- -- 59
2021-01-06 13:00:00 4.6 6 Este 10 Este 0 -- -- 74
2021-01-06 12:00:00 3.5 6 Sudeste 15 Sudeste 0 -- -- 76
2021-01-06 11:00:00 0.9 10 Sur 15 Sur 0 -- -- 85
2021-01-06 10:00:00 -2.8 3 Sur 5 Sur 0 -- -- 92
2021-01-06 09:00:00 -3.5 4 Sur 6 Sur 0 -- -- 91
2021-01-06 08:00:00 -3 3 Sudeste 5 Sur 0 -- -- 91
2021-01-06 07:00:00 -2.5 6 Sur 8 Sur 0 -- -- 91
2021-01-06 06:00:00 -2.2 2 Sur 7 Sur 0 -- -- 92
2021-01-06 05:00:00 -1.7 4 Sur 8 Sur 0 -- -- 92
2021-01-06 04:00:00 -1.5 3 Sur 9 Sur 0 -- -- 92
2021-01-06 03:00:00 -1.7 7 Sur 9 Sur 0 -- -- 92
2021-01-06 02:00:00 -2.2 0 Calma 5 Sur 0 -- -- 91
2021-01-06 01:00:00 -1.5 4 Sudeste 5 Este 0 -- -- 92
2021-01-06 00:00:00 -1.4 0 Calma 6 Sur 0 -- -- 91
2021-01-05 23:00:00 -1.1 3 Sur 5 Sur 0 -- -- 90
2021-01-05 22:00:00 -0.6 3 Sur 5 Sur 0 -- -- 90
2021-01-05 21:00:00 -0.1 2 Sudoeste 4 Sudoeste 0 -- -- 89
2021-01-05 20:00:00 1 0 Calma 4 Sudoeste 0 -- -- 84
2021-01-05 19:00:00 2.5 2 Sur 5 Sur 0 -- -- 81
2021-01-05 18:00:00 7.1 2 Nordeste 4 Este 0 -- -- 70
2021-01-05 17:00:00 7.4 2 Este 9 Sudeste 0 -- -- 72
2021-01-05 16:00:00 7.1 4 Sudeste 8 Sudeste 0 -- -- 74
2021-01-05 15:00:00 5.6 3 Sudeste 12 Sudeste 0 -- -- 87
2021-01-05 14:00:00 3.3 5 Sudeste 12 Sur 0 -- -- 98
2021-01-05 13:00:00 2.4 5 Sudeste 10 Sudeste 0 -- -- 98
2021-01-05 12:00:00 1.4 6 Sur 12 Sur 0 -- -- 98
2021-01-05 11:00:00 0.1 4 Sur 10 Sur 0.2 -- -- 98
2021-01-05 10:00:00 -0.9 7 Sur 12 Sur 0 -- -- 98
2021-01-05 09:00:00 -2.5 2 Sudeste 8 Sur 0 -- -- 98
2021-01-05 08:00:00 -2.3 4 Sur 8 Sur 0 -- -- 98
2021-01-05 07:00:00 -2.5 3 Sudeste 9 Sudeste 0 -- -- 98
2021-01-05 06:00:00 -2.2 5 Sudeste 11 Sudeste 0 -- -- 96
2021-01-05 05:00:00 -2.1 2 Sudeste 4 Este 0 -- -- 97
2021-01-05 04:00:00 -1.8 3 Sudoeste 4 Sudoeste 0 -- -- 97
2021-01-05 03:00:00 -1.2 0 Calma 8 Nordeste 0 -- -- 97
2021-01-05 02:00:00 -1.1 5 Sudeste 12 Sur 0 -- -- 97
2021-01-05 01:00:00 -0.5 3 Sudeste 8 Sudeste 0 -- -- 97
2021-01-05 00:00:00 -0.3 5 Sur 9 Sur 0 -- -- 95
2021-01-04 23:00:00 0.3 2 Sur 7 Nordeste 0 -- -- 96
2021-01-04 22:00:00 1.3 2 Sur 8 Nordeste 0 -- -- 94
2021-01-04 21:00:00 2.9 3 Nordeste 8 Este 0 -- -- 88
2021-01-04 20:00:00 5.2 5 Oeste 14 Oeste 0 -- -- 82
2021-01-04 19:00:00 5.3 2 Sudoeste 11 Oeste 0.2 -- -- 84
2021-01-04 18:00:00 7.3 3 Noroeste 11 Noroeste 0 -- -- 78
2021-01-04 17:00:00 6.9 6 Noroeste 14 Oeste 0 -- -- 82
2021-01-04 16:00:00 6 3 Norte 13 Noroeste 0 -- -- 89
2021-01-04 15:00:00 5.6 9 Noroeste 20 Noroeste 0 -- -- 89
2021-01-04 14:00:00 4.8 10 Noroeste 20 Oeste 0 -- -- 93
2021-01-04 13:00:00 4.5 11 Oeste 21 Oeste 0 -- -- 94
2021-01-04 12:00:00 4.3 6 Noroeste 14 Noroeste 0 -- -- 93
2021-01-04 11:00:00 3.6 8 Oeste 15 Noroeste 0 -- -- 96
2021-01-04 10:00:00 1.8 4 Nordeste 9 Noroeste 0 -- -- 96
2021-01-04 09:00:00 0.8 0 Calma 5 Oeste 0 -- -- 95
2021-01-04 08:00:00 0.3 2 Sudeste 9 Oeste 0 -- -- 94
2021-01-04 07:00:00 1.9 6 Noroeste 12 Oeste 0 -- -- 94
2021-01-04 06:00:00 1.4 3 Este 18 Oeste 0 -- -- 90
2021-01-04 05:00:00 2.1 9 Oeste 18 Noroeste 0 -- -- 90
2021-01-04 04:00:00 2.2 11 Oeste 19 Noroeste 0 -- -- 90
2021-01-04 03:00:00 2.5 10 Oeste 21 Oeste 0 -- -- 88
2021-01-04 02:00:00 3 8 Noroeste 17 Oeste 0 -- -- 85
2021-01-04 01:00:00 3.4 9 Oeste 20 Noroeste 0 -- -- 85
2021-01-04 00:00:00 3.8 11 Oeste 23 Oeste 0 -- -- 84
2021-01-03 23:00:00 4.6 15 Oeste 23 Oeste 0 -- -- 80
2021-01-03 22:00:00 5.5 13 Oeste 23 Oeste 0 -- -- 74
2021-01-03 21:00:00 5.5 14 Oeste 23 Oeste 0 -- -- 73
2021-01-03 20:00:00 5.4 13 Oeste 23 Oeste 0 -- -- 73
2021-01-03 19:00:00 5.9 13 Oeste 22 Oeste 0 -- -- 74
2021-01-03 18:00:00 7.4 7 Noroeste 22 Noroeste 0 -- -- 63
2021-01-03 17:00:00 8.7 11 Oeste 24 Noroeste 0 -- -- 62
2021-01-03 16:00:00 8.5 12 Noroeste 24 Noroeste 0 -- -- 62
2021-01-03 15:00:00 7.7 9 Oeste 18 Oeste 0 -- -- 63
2021-01-03 14:00:00 6.9 10 Noroeste 20 Oeste 0 -- -- 65
2021-01-03 13:00:00 5.7 6 Noroeste 13 Noroeste 0 -- -- 68
2021-01-03 12:00:00 3.9 3 Este 8 Nordeste 0 -- -- 81
2021-01-03 11:00:00 1.6 3 Nordeste 6 Nordeste 0 -- -- 89
2021-01-03 10:00:00 -0.4 0 Calma 6 Sudeste 0 -- -- 96
2021-01-03 09:00:00 -3.5 3 Sur 6 Sur 0 -- -- 94
2021-01-03 08:00:00 -2.9 0 Calma 6 Sur 0 -- -- 94
2021-01-03 07:00:00 -2.3 4 Sur 7 Sur 0 -- -- 95
2021-01-03 06:00:00 -3.5 0 Calma 2 Sur 0 -- -- 94
2021-01-03 05:00:00 -3.2 0 Calma 3 Oeste 0 -- -- 92
2021-01-03 04:00:00 -2.6 0 Calma 5 Este 0 -- -- 89
2021-01-03 03:00:00 -1.8 3 Este 6 Este 0 -- -- 86
2021-01-03 02:00:00 -1.7 3 Sur 8 Sudeste 0 -- -- 87
2021-01-03 01:00:00 -0.5 3 Nordeste 6 Este 0 -- -- 80
2021-01-03 00:00:00 0.2 3 Oeste 7 Este 0 -- -- 77
2021-01-02 23:00:00 2.6 3 Oeste 12 Noroeste 0 -- -- 65
2021-01-02 22:00:00 2.6 8 Oeste 12 Oeste 0 -- -- 67
2021-01-02 21:00:00 3.5 6 Noroeste 12 Noroeste 0 -- -- 64
2021-01-02 20:00:00 4.2 6 Noroeste 12 Oeste 0 -- -- 64
2021-01-02 19:00:00 5 8 Noroeste 16 Noroeste 0 -- -- 64
2021-01-02 18:00:00 7.1 9 Norte 26 Noroeste 0 -- -- 55
2021-01-02 17:00:00 8.6 14 Noroeste 28 Norte 0 -- -- 51
2021-01-02 16:00:00 9 13 Noroeste 28 Noroeste 0 -- -- 53
2021-01-02 15:00:00 8.6 15 Noroeste 24 Noroeste 0 -- -- 57
2021-01-02 14:00:00 8.1 12 Noroeste 24 Oeste 0 -- -- 57